sensor_id;sensor_type;location;lat;lon;timestamp;P1;durP1;ratioP1;P2;durP2;ratioP2
64291;SDS011;50628;51.008;13.658;2022-12-18T00:04:30;44.67;;;21.50;;
64291;SDS011;50628;51.008;13.658;2022-12-18T00:09:32;28.27;;;16.33;;
64291;SDS011;50628;51.008;13.658;2022-12-18T00:14:35;28.23;;;15.77;;
64291;SDS011;50628;51.008;13.658;2022-12-18T00:19:37;34.33;;;18.63;;
64291;SDS011;50628;51.008;13.658;2022-12-18T00:24:38;33.00;;;16.97;;
64291;SDS011;50628;51.008;13.658;2022-12-18T00:29:42;30.63;;;15.43;;
64291;SDS011;50628;51.008;13.658;2022-12-18T00:34:44;27.87;;;15.23;;
64291;SDS011;50628;51.008;13.658;2022-12-18T00:39:47;30.20;;;15.00;;
64291;SDS011;50628;51.008;13.658;2022-12-18T00:44:51;29.07;;;15.27;;
64291;SDS011;50628;51.008;13.658;2022-12-18T00:49:52;27.53;;;15.33;;
64291;SDS011;50628;51.008;13.658;2022-12-18T00:54:54;29.63;;;15.23;;
64291;SDS011;50628;51.008;13.658;2022-12-18T00:59:57;29.80;;;15.20;;
64291;SDS011;50628;51.008;13.658;2022-12-18T01:04:59;25.10;;;13.73;;
64291;SDS011;50628;51.008;13.658;2022-12-18T01:10:01;25.80;;;15.07;;
64291;SDS011;50628;51.008;13.658;2022-12-18T01:15:06;26.87;;;14.33;;
64291;SDS011;50628;51.008;13.658;2022-12-18T01:20:11;23.73;;;13.27;;
64291;SDS011;50628;51.008;13.658;2022-12-18T01:25:13;27.90;;;14.33;;
64291;SDS011;50628;51.008;13.658;2022-12-18T01:30:16;24.23;;;13.43;;
64291;SDS011;50628;51.008;13.658;2022-12-18T01:35:19;24.10;;;13.17;;
64291;SDS011;50628;51.008;13.658;2022-12-18T01:40:21;25.93;;;13.30;;
64291;SDS011;50628;51.008;13.658;2022-12-18T01:45:27;23.20;;;12.40;;
64291;SDS011;50628;51.008;13.658;2022-12-18T01:50:31;26.67;;;12.80;;
64291;SDS011;50628;51.008;13.658;2022-12-18T01:55:37;22.63;;;12.23;;
64291;SDS011;50628;51.008;13.658;2022-12-18T02:00:45;27.27;;;13.17;;
64291;SDS011;50628;51.008;13.658;2022-12-18T02:05:47;23.63;;;12.47;;
64291;SDS011;50628;51.008;13.658;2022-12-18T02:10:59;23.33;;;11.83;;
64291;SDS011;50628;51.008;13.658;2022-12-18T02:16:11;28.83;;;12.27;;
64291;SDS011;50628;51.008;13.658;2022-12-18T02:21:23;27.57;;;12.30;;
64291;SDS011;50628;51.008;13.658;2022-12-18T02:26:35;21.67;;;11.60;;
64291;SDS011;50628;51.008;13.658;2022-12-18T02:31:42;21.50;;;12.30;;
64291;SDS011;50628;51.008;13.658;2022-12-18T02:36:46;21.07;;;11.37;;
64291;SDS011;50628;51.008;13.658;2022-12-18T02:41:53;24.43;;;11.60;;
64291;SDS011;50628;51.008;13.658;2022-12-18T02:46:58;20.87;;;10.43;;
64291;SDS011;50628;51.008;13.658;2022-12-18T02:52:01;22.73;;;11.40;;
64291;SDS011;50628;51.008;13.658;2022-12-18T02:57:13;20.00;;;10.57;;
64291;SDS011;50628;51.008;13.658;2022-12-18T03:02:21;20.33;;;10.67;;
64291;SDS011;50628;51.008;13.658;2022-12-18T03:07:28;22.27;;;10.30;;
64291;SDS011;50628;51.008;13.658;2022-12-18T03:12:41;23.07;;;11.03;;
64291;SDS011;50628;51.008;13.658;2022-12-18T03:17:50;19.80;;;9.60;;
64291;SDS011;50628;51.008;13.658;2022-12-18T03:23:00;18.70;;;10.27;;
64291;SDS011;50628;51.008;13.658;2022-12-18T03:28:12;19.63;;;10.00;;
64291;SDS011;50628;51.008;13.658;2022-12-18T03:33:18;18.87;;;9.43;;
64291;SDS011;50628;51.008;13.658;2022-12-18T03:38:28;21.17;;;9.97;;
64291;SDS011;50628;51.008;13.658;2022-12-18T03:43:38;19.83;;;10.77;;
64291;SDS011;50628;51.008;13.658;2022-12-18T03:48:49;18.33;;;9.10;;
64291;SDS011;50628;51.008;13.658;2022-12-18T03:53:57;19.33;;;9.57;;
64291;SDS011;50628;51.008;13.658;2022-12-18T03:59:10;18.73;;;9.23;;
64291;SDS011;50628;51.008;13.658;2022-12-18T04:04:16;18.43;;;8.93;;
64291;SDS011;50628;51.008;13.658;2022-12-18T04:09:20;20.30;;;8.37;;
64291;SDS011;50628;51.008;13.658;2022-12-18T04:14:24;17.00;;;8.53;;
64291;SDS011;50628;51.008;13.658;2022-12-18T04:19:29;19.63;;;8.63;;
64291;SDS011;50628;51.008;13.658;2022-12-18T04:24:32;18.70;;;9.17;;
64291;SDS011;50628;51.008;13.658;2022-12-18T04:29:45;14.90;;;7.93;;
64291;SDS011;50628;51.008;13.658;2022-12-18T04:34:49;14.87;;;7.53;;
64291;SDS011;50628;51.008;13.658;2022-12-18T04:39:51;17.20;;;8.73;;
64291;SDS011;50628;51.008;13.658;2022-12-18T04:45:06;16.33;;;7.97;;
64291;SDS011;50628;51.008;13.658;2022-12-18T04:50:09;12.43;;;6.87;;
64291;SDS011;50628;51.008;13.658;2022-12-18T04:55:11;17.23;;;7.93;;
64291;SDS011;50628;51.008;13.658;2022-12-18T05:00:15;15.73;;;8.30;;
64291;SDS011;50628;51.008;13.658;2022-12-18T05:05:17;13.90;;;7.87;;
64291;SDS011;50628;51.008;13.658;2022-12-18T05:10:19;14.37;;;6.60;;
64291;SDS011;50628;51.008;13.658;2022-12-18T05:15:22;14.37;;;6.87;;
64291;SDS011;50628;51.008;13.658;2022-12-18T05:20:24;15.13;;;7.13;;
64291;SDS011;50628;51.008;13.658;2022-12-18T05:25:26;18.20;;;8.20;;
64291;SDS011;50628;51.008;13.658;2022-12-18T05:30:30;11.30;;;6.80;;
64291;SDS011;50628;51.008;13.658;2022-12-18T05:35:32;14.00;;;6.57;;
64291;SDS011;50628;51.008;13.658;2022-12-18T05:40:33;15.80;;;7.63;;
64291;SDS011;50628;51.008;13.658;2022-12-18T05:45:38;15.20;;;7.23;;
64291;SDS011;50628;51.008;13.658;2022-12-18T05:50:41;14.37;;;6.87;;
64291;SDS011;50628;51.008;13.658;2022-12-18T05:55:44;11.50;;;6.83;;
64291;SDS011;50628;51.008;13.658;2022-12-18T06:00:47;11.73;;;6.13;;
64291;SDS011;50628;51.008;13.658;2022-12-18T06:05:49;10.23;;;5.77;;
64291;SDS011;50628;51.008;13.658;2022-12-18T06:10:51;15.47;;;6.97;;
64291;SDS011;50628;51.008;13.658;2022-12-18T06:15:55;13.23;;;5.97;;
64291;SDS011;50628;51.008;13.658;2022-12-18T06:20:57;15.07;;;6.47;;
64291;SDS011;50628;51.008;13.658;2022-12-18T06:26:03;12.60;;;6.30;;
64291;SDS011;50628;51.008;13.658;2022-12-18T06:31:08;12.97;;;6.90;;
64291;SDS011;50628;51.008;13.658;2022-12-18T06:36:11;13.37;;;7.13;;
64291;SDS011;50628;51.008;13.658;2022-12-18T06:41:15;14.77;;;6.40;;
64291;SDS011;50628;51.008;13.658;2022-12-18T06:46:19;15.47;;;7.57;;
64291;SDS011;50628;51.008;13.658;2022-12-18T06:51:22;13.00;;;6.73;;
64291;SDS011;50628;51.008;13.658;2022-12-18T06:56:26;18.60;;;8.40;;
64291;SDS011;50628;51.008;13.658;2022-12-18T07:01:29;14.87;;;7.27;;
64291;SDS011;50628;51.008;13.658;2022-12-18T07:06:31;12.87;;;6.17;;
64291;SDS011;50628;51.008;13.658;2022-12-18T07:11:33;13.00;;;6.23;;
64291;SDS011;50628;51.008;13.658;2022-12-18T07:16:36;15.27;;;8.23;;
64291;SDS011;50628;51.008;13.658;2022-12-18T07:21:38;13.80;;;7.10;;
64291;SDS011;50628;51.008;13.658;2022-12-18T07:26:40;15.70;;;7.87;;
64291;SDS011;50628;51.008;13.658;2022-12-18T07:31:44;14.10;;;6.70;;
64291;SDS011;50628;51.008;13.658;2022-12-18T07:36:46;19.17;;;8.17;;
64291;SDS011;50628;51.008;13.658;2022-12-18T07:41:47;20.43;;;9.00;;
64291;SDS011;50628;51.008;13.658;2022-12-18T07:47:11;24.57;;;8.60;;
64291;SDS011;50628;51.008;13.658;2022-12-18T07:52:12;19.23;;;8.40;;
64291;SDS011;50628;51.008;13.658;2022-12-18T07:57:14;16.67;;;8.93;;
64291;SDS011;50628;51.008;13.658;2022-12-18T08:02:18;19.10;;;9.83;;
64291;SDS011;50628;51.008;13.658;2022-12-18T08:07:20;15.27;;;9.03;;
64291;SDS011;50628;51.008;13.658;2022-12-18T08:12:21;19.30;;;10.00;;
64291;SDS011;50628;51.008;13.658;2022-12-18T08:17:25;21.20;;;11.27;;
64291;SDS011;50628;51.008;13.658;2022-12-18T08:22:27;20.87;;;10.87;;
64291;SDS011;50628;51.008;13.658;2022-12-18T08:27:28;19.40;;;9.77;;
64291;SDS011;50628;51.008;13.658;2022-12-18T08:32:32;17.93;;;10.13;;
64291;SDS011;50628;51.008;13.658;2022-12-18T08:37:34;18.77;;;9.77;;
64291;SDS011;50628;51.008;13.658;2022-12-18T08:42:36;22.47;;;10.37;;
64291;SDS011;50628;51.008;13.658;2022-12-18T08:47:56;20.97;;;10.53;;
64291;SDS011;50628;51.008;13.658;2022-12-18T08:52:58;26.00;;;11.17;;
64291;SDS011;50628;51.008;13.658;2022-12-18T08:58:00;22.27;;;10.67;;
64291;SDS011;50628;51.008;13.658;2022-12-18T09:03:03;21.83;;;11.27;;
64291;SDS011;50628;51.008;13.658;2022-12-18T09:08:05;22.43;;;11.63;;
64291;SDS011;50628;51.008;13.658;2022-12-18T09:13:07;21.53;;;11.93;;
64291;SDS011;50628;51.008;13.658;2022-12-18T09:18:10;25.63;;;13.07;;
64291;SDS011;50628;51.008;13.658;2022-12-18T09:23:12;24.93;;;14.73;;
64291;SDS011;50628;51.008;13.658;2022-12-18T09:28:15;46.50;;;29.37;;
64291;SDS011;50628;51.008;13.658;2022-12-18T09:33:19;30.30;;;18.90;;
64291;SDS011;50628;51.008;13.658;2022-12-18T09:38:21;30.13;;;18.07;;
64291;SDS011;50628;51.008;13.658;2022-12-18T09:43:24;38.07;;;19.60;;
64291;SDS011;50628;51.008;13.658;2022-12-18T09:48:32;24.97;;;16.77;;
64291;SDS011;50628;51.008;13.658;2022-12-18T09:53:37;28.50;;;17.17;;
64291;SDS011;50628;51.008;13.658;2022-12-18T09:58:43;25.70;;;14.97;;
64291;SDS011;50628;51.008;13.658;2022-12-18T10:03:51;24.70;;;15.17;;
64291;SDS011;50628;51.008;13.658;2022-12-18T10:08:56;27.30;;;14.53;;
64291;SDS011;50628;51.008;13.658;2022-12-18T10:14:05;25.07;;;14.60;;
64291;SDS011;50628;51.008;13.658;2022-12-18T10:19:18;23.97;;;15.70;;
64291;SDS011;50628;51.008;13.658;2022-12-18T10:24:32;25.70;;;16.60;;
64291;SDS011;50628;51.008;13.658;2022-12-18T10:29:38;27.10;;;16.17;;
64291;SDS011;50628;51.008;13.658;2022-12-18T10:34:43;28.37;;;15.77;;
64291;SDS011;50628;51.008;13.658;2022-12-18T10:39:47;26.60;;;15.83;;
64291;SDS011;50628;51.008;13.658;2022-12-18T10:45:09;23.27;;;13.57;;
64291;SDS011;50628;51.008;13.658;2022-12-18T10:50:22;22.07;;;12.13;;
64291;SDS011;50628;51.008;13.658;2022-12-18T10:55:30;24.50;;;12.90;;
64291;SDS011;50628;51.008;13.658;2022-12-18T11:00:35;23.70;;;13.13;;
64291;SDS011;50628;51.008;13.658;2022-12-18T11:05:38;22.33;;;13.93;;
64291;SDS011;50628;51.008;13.658;2022-12-18T11:10:40;24.37;;;13.73;;
64291;SDS011;50628;51.008;13.658;2022-12-18T11:15:48;27.70;;;13.47;;
64291;SDS011;50628;51.008;13.658;2022-12-18T11:20:53;30.17;;;15.83;;
64291;SDS011;50628;51.008;13.658;2022-12-18T11:25:59;31.23;;;15.70;;
64291;SDS011;50628;51.008;13.658;2022-12-18T11:31:17;29.63;;;16.07;;
64291;SDS011;50628;51.008;13.658;2022-12-18T11:36:22;23.40;;;13.83;;
64291;SDS011;50628;51.008;13.658;2022-12-18T11:41:25;21.10;;;13.57;;
64291;SDS011;50628;51.008;13.658;2022-12-18T11:46:46;27.70;;;15.63;;
64291;SDS011;50628;51.008;13.658;2022-12-18T11:51:55;34.97;;;20.03;;
64291;SDS011;50628;51.008;13.658;2022-12-18T11:57:03;34.07;;;18.57;;
64291;SDS011;50628;51.008;13.658;2022-12-18T12:02:17;34.33;;;19.13;;
64291;SDS011;50628;51.008;13.658;2022-12-18T12:07:35;35.27;;;19.43;;
64291;SDS011;50628;51.008;13.658;2022-12-18T12:12:48;34.07;;;19.07;;
64291;SDS011;50628;51.008;13.658;2022-12-18T12:18:01;36.10;;;18.67;;
64291;SDS011;50628;51.008;13.658;2022-12-18T12:23:13;43.90;;;20.97;;
64291;SDS011;50628;51.008;13.658;2022-12-18T12:28:22;35.03;;;18.00;;
64291;SDS011;50628;51.008;13.658;2022-12-18T12:33:39;36.20;;;19.73;;
64291;SDS011;50628;51.008;13.658;2022-12-18T12:38:50;35.77;;;18.93;;
64291;SDS011;50628;51.008;13.658;2022-12-18T12:43:56;35.47;;;19.93;;
64291;SDS011;50628;51.008;13.658;2022-12-18T12:49:03;37.93;;;20.03;;
64291;SDS011;50628;51.008;13.658;2022-12-18T12:54:13;35.93;;;19.27;;
64291;SDS011;50628;51.008;13.658;2022-12-18T12:59:19;39.30;;;19.23;;
64291;SDS011;50628;51.008;13.658;2022-12-18T13:04:30;34.43;;;18.60;;
64291;SDS011;50628;51.008;13.658;2022-12-18T13:10:10;36.90;;;18.97;;
64291;SDS011;50628;51.008;13.658;2022-12-18T13:15:20;33.43;;;18.40;;
64291;SDS011;50628;51.008;13.658;2022-12-18T13:20:23;33.87;;;17.97;;
64291;SDS011;50628;51.008;13.658;2022-12-18T13:25:36;37.27;;;18.13;;
64291;SDS011;50628;51.008;13.658;2022-12-18T13:30:43;34.60;;;17.43;;
64291;SDS011;50628;51.008;13.658;2022-12-18T13:36:01;31.63;;;17.27;;
64291;SDS011;50628;51.008;13.658;2022-12-18T13:41:24;33.07;;;17.63;;
64291;SDS011;50628;51.008;13.658;2022-12-18T13:46:28;36.37;;;17.10;;
64291;SDS011;50628;51.008;13.658;2022-12-18T13:51:39;32.27;;;16.93;;
64291;SDS011;50628;51.008;13.658;2022-12-18T13:56:46;34.50;;;17.70;;
64291;SDS011;50628;51.008;13.658;2022-12-18T14:01:50;37.20;;;18.43;;
64291;SDS011;50628;51.008;13.658;2022-12-18T14:06:58;32.63;;;17.43;;
64291;SDS011;50628;51.008;13.658;2022-12-18T14:12:14;32.87;;;15.70;;
64291;SDS011;50628;51.008;13.658;2022-12-18T14:17:33;27.60;;;16.60;;
64291;SDS011;50628;51.008;13.658;2022-12-18T14:22:37;31.47;;;15.83;;
64291;SDS011;50628;51.008;13.658;2022-12-18T14:27:45;29.73;;;16.13;;
64291;SDS011;50628;51.008;13.658;2022-12-18T14:32:58;34.07;;;16.67;;
64291;SDS011;50628;51.008;13.658;2022-12-18T14:38:11;28.33;;;16.00;;
64291;SDS011;50628;51.008;13.658;2022-12-18T14:43:24;27.37;;;14.67;;
64291;SDS011;50628;51.008;13.658;2022-12-18T14:48:35;30.50;;;15.03;;
64291;SDS011;50628;51.008;13.658;2022-12-18T14:53:39;27.10;;;15.33;;
64291;SDS011;50628;51.008;13.658;2022-12-18T14:58:46;32.57;;;16.03;;
64291;SDS011;50628;51.008;13.658;2022-12-18T15:03:50;30.87;;;17.13;;
64291;SDS011;50628;51.008;13.658;2022-12-18T15:08:52;29.33;;;16.10;;
64291;SDS011;50628;51.008;13.658;2022-12-18T15:13:57;42.67;;;17.77;;
64291;SDS011;50628;51.008;13.658;2022-12-18T15:18:59;33.03;;;16.70;;
64291;SDS011;50628;51.008;13.658;2022-12-18T15:24:02;35.63;;;16.83;;
64291;SDS011;50628;51.008;13.658;2022-12-18T15:29:15;31.57;;;16.77;;
64291;SDS011;50628;51.008;13.658;2022-12-18T15:34:20;32.60;;;17.30;;
64291;SDS011;50628;51.008;13.658;2022-12-18T15:39:23;40.13;;;18.47;;
64291;SDS011;50628;51.008;13.658;2022-12-18T15:44:27;32.47;;;16.40;;
64291;SDS011;50628;51.008;13.658;2022-12-18T15:49:29;34.20;;;16.83;;
64291;SDS011;50628;51.008;13.658;2022-12-18T15:54:30;28.07;;;13.93;;
64291;SDS011;50628;51.008;13.658;2022-12-18T15:59:51;30.77;;;14.47;;
64291;SDS011;50628;51.008;13.658;2022-12-18T16:04:55;35.50;;;16.93;;
64291;SDS011;50628;51.008;13.658;2022-12-18T16:09:57;33.90;;;17.03;;
64291;SDS011;50628;51.008;13.658;2022-12-18T16:15:01;36.57;;;20.00;;
64291;SDS011;50628;51.008;13.658;2022-12-18T16:20:03;38.07;;;19.23;;
64291;SDS011;50628;51.008;13.658;2022-12-18T16:25:06;37.10;;;18.93;;
64291;SDS011;50628;51.008;13.658;2022-12-18T16:30:14;39.60;;;19.43;;
64291;SDS011;50628;51.008;13.658;2022-12-18T16:35:16;34.30;;;17.30;;
64291;SDS011;50628;51.008;13.658;2022-12-18T16:40:18;34.73;;;17.73;;
64291;SDS011;50628;51.008;13.658;2022-12-18T16:45:22;37.63;;;19.57;;
64291;SDS011;50628;51.008;13.658;2022-12-18T16:50:26;35.27;;;18.73;;
64291;SDS011;50628;51.008;13.658;2022-12-18T16:55:28;43.93;;;22.80;;
64291;SDS011;50628;51.008;13.658;2022-12-18T17:00:31;50.33;;;21.40;;
64291;SDS011;50628;51.008;13.658;2022-12-18T17:05:33;46.03;;;20.77;;
64291;SDS011;50628;51.008;13.658;2022-12-18T17:10:35;42.33;;;22.77;;
64291;SDS011;50628;51.008;13.658;2022-12-18T17:15:38;43.50;;;21.73;;
64291;SDS011;50628;51.008;13.658;2022-12-18T17:20:40;42.17;;;22.10;;
64291;SDS011;50628;51.008;13.658;2022-12-18T17:25:42;36.97;;;20.47;;
64291;SDS011;50628;51.008;13.658;2022-12-18T17:30:46;39.67;;;20.40;;
64291;SDS011;50628;51.008;13.658;2022-12-18T17:35:48;42.13;;;22.10;;
64291;SDS011;50628;51.008;13.658;2022-12-18T17:40:50;44.63;;;21.97;;
64291;SDS011;50628;51.008;13.658;2022-12-18T17:45:53;44.87;;;23.37;;
64291;SDS011;50628;51.008;13.658;2022-12-18T17:50:59;43.20;;;22.97;;
64291;SDS011;50628;51.008;13.658;2022-12-18T17:56:01;43.77;;;22.23;;
64291;SDS011;50628;51.008;13.658;2022-12-18T18:01:06;39.07;;;22.03;;
64291;SDS011;50628;51.008;13.658;2022-12-18T18:06:08;41.53;;;21.80;;
64291;SDS011;50628;51.008;13.658;2022-12-18T18:11:11;44.97;;;22.80;;
64291;SDS011;50628;51.008;13.658;2022-12-18T18:16:34;43.63;;;23.87;;
64291;SDS011;50628;51.008;13.658;2022-12-18T18:21:39;45.43;;;24.33;;
64291;SDS011;50628;51.008;13.658;2022-12-18T18:26:42;43.63;;;24.13;;
64291;SDS011;50628;51.008;13.658;2022-12-18T18:31:48;48.47;;;23.67;;
64291;SDS011;50628;51.008;13.658;2022-12-18T18:36:51;48.10;;;25.73;;
64291;SDS011;50628;51.008;13.658;2022-12-18T18:41:53;51.47;;;27.00;;
64291;SDS011;50628;51.008;13.658;2022-12-18T18:46:56;60.33;;;30.30;;
64291;SDS011;50628;51.008;13.658;2022-12-18T18:52:00;57.10;;;29.80;;
64291;SDS011;50628;51.008;13.658;2022-12-18T18:57:02;58.63;;;30.60;;
64291;SDS011;50628;51.008;13.658;2022-12-18T19:02:07;43.30;;;24.43;;
64291;SDS011;50628;51.008;13.658;2022-12-18T19:07:11;50.73;;;25.37;;
64291;SDS011;50628;51.008;13.658;2022-12-18T19:12:13;40.50;;;22.93;;
64291;SDS011;50628;51.008;13.658;2022-12-18T19:17:33;48.67;;;26.70;;
64291;SDS011;50628;51.008;13.658;2022-12-18T19:22:36;49.97;;;27.77;;
64291;SDS011;50628;51.008;13.658;2022-12-18T19:27:38;50.57;;;26.27;;
64291;SDS011;50628;51.008;13.658;2022-12-18T19:32:41;53.37;;;26.10;;
64291;SDS011;50628;51.008;13.658;2022-12-18T19:37:43;46.97;;;25.53;;
64291;SDS011;50628;51.008;13.658;2022-12-18T19:42:45;42.10;;;24.67;;
64291;SDS011;50628;51.008;13.658;2022-12-18T19:47:48;48.33;;;26.93;;
64291;SDS011;50628;51.008;13.658;2022-12-18T19:52:50;49.27;;;26.17;;
64291;SDS011;50628;51.008;13.658;2022-12-18T19:57:52;50.80;;;26.33;;
64291;SDS011;50628;51.008;13.658;2022-12-18T20:02:55;45.73;;;25.37;;
64291;SDS011;50628;51.008;13.658;2022-12-18T20:07:57;75.80;;;37.33;;
64291;SDS011;50628;51.008;13.658;2022-12-18T20:12:59;47.10;;;25.93;;
64291;SDS011;50628;51.008;13.658;2022-12-18T20:18:02;45.50;;;24.53;;
64291;SDS011;50628;51.008;13.658;2022-12-18T20:23:04;48.90;;;24.27;;
64291;SDS011;50628;51.008;13.658;2022-12-18T20:28:06;43.80;;;25.07;;
64291;SDS011;50628;51.008;13.658;2022-12-18T20:33:09;44.33;;;24.80;;
64291;SDS011;50628;51.008;13.658;2022-12-18T20:38:11;44.70;;;25.37;;
64291;SDS011;50628;51.008;13.658;2022-12-18T20:43:13;47.87;;;25.23;;
64291;SDS011;50628;51.008;13.658;2022-12-18T20:48:16;45.60;;;23.83;;
64291;SDS011;50628;51.008;13.658;2022-12-18T20:53:18;45.10;;;25.90;;
64291;SDS011;50628;51.008;13.658;2022-12-18T20:58:20;42.50;;;24.40;;
64291;SDS011;50628;51.008;13.658;2022-12-18T21:03:23;43.50;;;24.17;;
64291;SDS011;50628;51.008;13.658;2022-12-18T21:08:25;45.70;;;24.93;;
64291;SDS011;50628;51.008;13.658;2022-12-18T21:13:27;43.27;;;25.00;;
64291;SDS011;50628;51.008;13.658;2022-12-18T21:18:30;49.97;;;24.60;;
64291;SDS011;50628;51.008;13.658;2022-12-18T21:23:32;44.93;;;24.37;;
64291;SDS011;50628;51.008;13.658;2022-12-18T21:28:34;43.43;;;23.70;;
64291;SDS011;50628;51.008;13.658;2022-12-18T21:33:38;38.97;;;21.17;;
64291;SDS011;50628;51.008;13.658;2022-12-18T21:38:40;42.03;;;22.20;;
64291;SDS011;50628;51.008;13.658;2022-12-18T21:43:42;41.50;;;21.60;;
64291;SDS011;50628;51.008;13.658;2022-12-18T21:49:03;40.07;;;21.80;;
64291;SDS011;50628;51.008;13.658;2022-12-18T21:54:06;41.47;;;20.73;;
64291;SDS011;50628;51.008;13.658;2022-12-18T21:59:08;37.77;;;20.10;;
64291;SDS011;50628;51.008;13.658;2022-12-18T22:04:11;33.43;;;18.93;;
64291;SDS011;50628;51.008;13.658;2022-12-18T22:09:14;34.03;;;18.97;;
64291;SDS011;50628;51.008;13.658;2022-12-18T22:14:18;38.37;;;20.00;;
64291;SDS011;50628;51.008;13.658;2022-12-18T22:19:23;33.73;;;17.93;;
64291;SDS011;50628;51.008;13.658;2022-12-18T22:24:26;35.73;;;20.67;;
64291;SDS011;50628;51.008;13.658;2022-12-18T22:29:28;35.17;;;20.70;;
64291;SDS011;50628;51.008;13.658;2022-12-18T22:34:49;35.87;;;18.87;;
64291;SDS011;50628;51.008;13.658;2022-12-18T22:39:51;34.43;;;18.90;;
64291;SDS011;50628;51.008;13.658;2022-12-18T22:44:53;34.63;;;17.57;;
64291;SDS011;50628;51.008;13.658;2022-12-18T22:49:57;38.03;;;19.10;;
64291;SDS011;50628;51.008;13.658;2022-12-18T22:54:59;36.60;;;17.87;;
64291;SDS011;50628;51.008;13.658;2022-12-18T23:00:00;30.57;;;16.43;;
64291;SDS011;50628;51.008;13.658;2022-12-18T23:05:07;31.57;;;16.27;;
64291;SDS011;50628;51.008;13.658;2022-12-18T23:15:15;27.37;;;14.97;;
64291;SDS011;50628;51.008;13.658;2022-12-18T23:20:18;31.37;;;15.43;;
64291;SDS011;50628;51.008;13.658;2022-12-18T23:25:20;27.77;;;15.87;;
64291;SDS011;50628;51.008;13.658;2022-12-18T23:30:22;30.50;;;16.43;;
64291;SDS011;50628;51.008;13.658;2022-12-18T23:35:25;30.57;;;16.13;;
64291;SDS011;50628;51.008;13.658;2022-12-18T23:40:27;29.27;;;16.23;;
64291;SDS011;50628;51.008;13.658;2022-12-18T23:45:29;30.37;;;16.97;;
64291;SDS011;50628;51.008;13.658;2022-12-18T23:50:34;30.40;;;17.47;;
64291;SDS011;50628;51.008;13.658;2022-12-18T23:55:37;33.50;;;17.27;;
